Time;durP1;ratioP1;P1;durP2;ratioP2;P2;SDS_P1;SDS_P2;PMS_P1;PMS_P2;Temp;Humidity;BMP_temperature;BMP_pressure;BME280_temperature;BME280_humidity;BME280_pressure;Samples;Min_cycle;Max_cycle;Signal;HPM_P1;HPM_P2
2022/05/12 00:03:50;;;;;;;11.70;7.25;;;;;;;;;;8270145;28;20062;-82
2022/05/12 00:07:54;;;;;;;13.10;7.65;;;;;;;;;;8270069;28;20048;-82
2022/05/12 00:11:57;;;;;;;11.65;6.70;;;;;;;;;;8270032;28;20081;-81
2022/05/12 00:15:59;;;;;;;9.88;6.70;;;;;;;;;;8269909;28;20478;-82
2022/05/12 00:20:02;;;;;;;11.95;7.18;;;;;;;;;;8269252;28;20050;-81
2022/05/12 00:24:06;;;;;;;11.43;6.95;;;;;;;;;;8269129;28;20057;-81
2022/05/12 00:28:09;;;;;;;10.07;7.10;;;;;;;;;;8269585;28;20077;-82
2022/05/12 00:32:12;;;;;;;9.25;6.65;;;;;;;;;;8269499;28;20046;-81
2022/05/12 00:36:15;;;;;;;11.23;6.75;;;;;;;;;;8268334;28;20042;-82
2022/05/12 00:40:19;;;;;;;12.23;6.97;;;;;;;;;;8268806;28;20077;-81
2022/05/12 00:44:22;;;;;;;8.73;6.47;;;;;;;;;;8268183;28;20180;-82
2022/05/12 00:48:24;;;;;;;10.63;7.03;;;;;;;;;;8268737;28;20470;-81
2022/05/12 00:52:29;;;;;;;9.00;6.53;;;;;;;;;;8268797;28;20049;-81
2022/05/12 00:56:35;;;;;;;9.13;6.63;;;;;;;;;;8267899;28;20057;-82
2022/05/12 01:00:38;;;;;;;12.10;6.68;;;;;;;;;;8267278;28;20105;-82
2022/05/12 01:04:42;;;;;;;9.77;6.80;;;;;;;;;;8285823;28;20155;-82
2022/05/12 01:08:46;;;;;;;13.25;6.93;;;;;;;;;;8267244;28;20050;-81
2022/05/12 01:12:52;;;;;;;10.15;6.40;;;;;;;;;;8266829;28;20128;-82
2022/05/12 01:16:56;;;;;;;11.18;6.80;;;;;;;;;;8266999;28;20073;-90
2022/05/12 01:20:59;;;;;;;13.13;6.63;;;;;;;;;;8266647;28;20054;-82
2022/05/12 01:25:09;;;;;;;10.57;6.60;;;;;;;;;;8278559;28;20042;-82
2022/05/12 01:29:12;;;;;;;9.18;6.40;;;;;;;;;;8298726;28;20042;-82
2022/05/12 01:33:15;;;;;;;12.45;6.60;;;;;;;;;;8298825;28;20050;-82
2022/05/12 01:37:17;;;;;;;12.07;6.18;;;;;;;;;;8297815;28;20049;-82
2022/05/12 01:41:21;;;;;;;12.23;6.68;;;;;;;;;;8297950;28;20459;-82
2022/05/12 01:45:24;;;;;;;10.35;6.45;;;;;;;;;;8297580;28;20422;-86
2022/05/12 01:49:27;;;;;;;14.25;6.43;;;;;;;;;;8298028;28;20482;-81
2022/05/12 01:53:30;;;;;;;10.43;6.93;;;;;;;;;;8297237;28;20063;-85
2022/05/12 01:57:34;;;;;;;9.63;6.78;;;;;;;;;;8297698;28;20052;-86
2022/05/12 02:01:37;;;;;;;8.98;6.32;;;;;;;;;;8297726;28;20050;-81
2022/05/12 02:05:41;;;;;;;9.80;6.30;;;;;;;;;;8297481;28;20069;-81
2022/05/12 02:09:44;;;;;;;13.30;7.90;;;;;;;;;;8297859;28;20076;-82
2022/05/12 02:13:47;;;;;;;11.18;6.07;;;;;;;;;;8297344;28;20103;-87
2022/05/12 02:17:50;;;;;;;13.90;6.85;;;;;;;;;;8301504;28;20100;-90
2022/05/12 02:21:54;;;;;;;10.45;6.03;;;;;;;;;;8286689;28;20038;-85
2022/05/12 02:25:57;;;;;;;10.90;5.88;;;;;;;;;;8284449;28;20049;-90
2022/05/12 02:30:01;;;;;;;7.85;5.65;;;;;;;;;;8280113;28;20046;-88
2022/05/12 02:34:04;;;;;;;11.45;6.20;;;;;;;;;;8286242;28;20424;-90
2022/05/12 02:38:07;;;;;;;9.57;5.95;;;;;;;;;;8287724;28;20053;-83
2022/05/12 02:42:11;;;;;;;11.57;5.93;;;;;;;;;;8288816;28;20050;-83
2022/05/12 02:46:16;;;;;;;10.00;6.05;;;;;;;;;;8281229;28;20050;-82
2022/05/12 02:50:19;;;;;;;11.10;5.85;;;;;;;;;;8288235;28;20050;-87
2022/05/12 02:54:21;;;;;;;8.80;5.85;;;;;;;;;;8295010;28;20056;-92
2022/05/12 02:58:24;;;;;;;8.15;5.97;;;;;;;;;;8295594;28;20093;-86
2022/05/12 03:02:28;;;;;;;10.02;6.05;;;;;;;;;;8290477;28;20042;-83
2022/05/12 03:06:31;;;;;;;10.23;5.53;;;;;;;;;;8297543;28;20042;-83
2022/05/12 03:10:34;;;;;;;11.90;6.63;;;;;;;;;;8287590;28;20042;-83
2022/05/12 03:14:37;;;;;;;10.52;6.00;;;;;;;;;;8271553;28;20100;-83
2022/05/12 03:18:41;;;;;;;14.77;7.50;;;;;;;;;;8279185;28;20092;-83
2022/05/12 03:22:43;;;;;;;7.47;5.28;;;;;;;;;;8302588;28;20113;-82
2022/05/12 03:26:46;;;;;;;11.35;5.95;;;;;;;;;;8297267;28;20043;-83
2022/05/12 03:30:50;;;;;;;9.73;6.03;;;;;;;;;;8280857;28;20050;-81
2022/05/12 03:34:54;;;;;;;15.38;6.10;;;;;;;;;;8271050;28;20050;-83
2022/05/12 03:38:57;;;;;;;9.25;5.85;;;;;;;;;;8301678;28;20052;-83
2022/05/12 03:42:59;;;;;;;9.05;5.38;;;;;;;;;;8301557;28;20088;-84
2022/05/12 03:47:02;;;;;;;8.20;5.50;;;;;;;;;;8302471;28;20053;-82
2022/05/12 03:51:06;;;;;;;7.93;5.13;;;;;;;;;;8301751;28;20057;-84
2022/05/12 03:55:11;;;;;;;7.25;5.28;;;;;;;;;;8278807;28;20058;-83
2022/05/12 03:59:13;;;;;;;9.50;5.30;;;;;;;;;;8274424;28;20397;-83
2022/05/12 04:03:16;;;;;;;8.95;4.97;;;;;;;;;;8301169;28;20054;-83
2022/05/12 04:07:22;;;;;;;9.80;5.35;;;;;;;;;;8301505;28;20053;-85
2022/05/12 04:11:25;;;;;;;8.65;5.18;;;;;;;;;;8292212;28;20061;-84
2022/05/12 04:15:28;;;;;;;10.70;5.15;;;;;;;;;;8271058;28;20053;-83
2022/05/12 04:19:30;;;;;;;9.70;5.13;;;;;;;;;;8279158;28;20058;-83
2022/05/12 04:23:34;;;;;;;6.55;5.07;;;;;;;;;;8281161;28;20053;-82
2022/05/12 04:27:37;;;;;;;11.35;5.03;;;;;;;;;;8279706;28;20469;-83
2022/05/12 04:31:40;;;;;;;7.90;5.50;;;;;;;;;;8278279;28;20046;-83
2022/05/12 04:35:42;;;;;;;9.35;5.15;;;;;;;;;;8278968;28;20048;-83
2022/05/12 04:39:46;;;;;;;10.02;4.88;;;;;;;;;;8280227;28;20479;-83
2022/05/12 04:43:49;;;;;;;8.27;4.93;;;;;;;;;;8303911;28;20141;-83
2022/05/12 04:47:52;;;;;;;8.38;5.18;;;;;;;;;;8310046;28;20050;-84
2022/05/12 04:51:57;;;;;;;14.07;5.07;;;;;;;;;;8310088;28;20054;-83
2022/05/12 04:56:00;;;;;;;8.23;4.53;;;;;;;;;;8310757;28;20050;-83
2022/05/12 05:00:04;;;;;;;7.22;4.10;;;;;;;;;;8308592;28;20077;-84
2022/05/12 05:04:07;;;;;;;7.65;4.90;;;;;;;;;;8309717;28;20046;-83
2022/05/12 05:08:14;;;;;;;10.85;4.78;;;;;;;;;;8307456;28;20133;-83
2022/05/12 05:12:18;;;;;;;7.32;4.45;;;;;;;;;;8309284;28;20045;-83
2022/05/12 05:16:21;;;;;;;7.82;4.70;;;;;;;;;;8309463;28;20080;-83
2022/05/12 05:20:25;;;;;;;9.13;4.53;;;;;;;;;;8308286;28;20109;-83
2022/05/12 05:24:29;;;;;;;7.70;4.80;;;;;;;;;;8306120;28;20050;-83
2022/05/12 05:28:33;;;;;;;8.13;4.65;;;;;;;;;;8307899;28;20053;-82
2022/05/12 05:32:36;;;;;;;7.28;4.30;;;;;;;;;;8293317;28;20080;-83
2022/05/12 05:36:42;;;;;;;8.25;4.43;;;;;;;;;;8277071;28;20077;-83
2022/05/12 05:40:45;;;;;;;7.30;4.10;;;;;;;;;;8275995;28;20050;-89
2022/05/12 05:44:49;;;;;;;5.82;4.07;;;;;;;;;;8275676;28;20062;-85
2022/05/12 05:48:52;;;;;;;6.55;4.00;;;;;;;;;;8274017;28;20047;-83
2022/05/12 05:57:21;;;;;;;9.35;3.88;;;;;;;;;;8297349;28;20092;-85
2022/05/12 06:01:25;;;;;;;5.28;3.35;;;;;;;;;;8268875;28;20054;-84
2022/05/12 06:05:28;;;;;;;8.02;3.95;;;;;;;;;;8268293;28;20467;-84
2022/05/12 06:09:30;;;;;;;5.97;3.70;;;;;;;;;;8284065;28;20046;-89
2022/05/12 06:13:34;;;;;;;7.90;3.78;;;;;;;;;;8298440;28;20046;-85
2022/05/12 06:17:39;;;;;;;6.03;3.92;;;;;;;;;;8298492;28;20042;-83
2022/05/12 06:21:42;;;;;;;8.68;3.70;;;;;;;;;;8298213;28;20056;-83
2022/05/12 06:25:45;;;;;;;6.07;4.30;;;;;;;;;;8298052;28;20042;-85
2022/05/12 06:29:48;;;;;;;5.63;3.92;;;;;;;;;;8271695;28;20066;-84
2022/05/12 06:33:52;;;;;;;8.88;3.65;;;;;;;;;;8266109;28;20486;-84
2022/05/12 06:37:54;;;;;;;20.88;4.13;;;;;;;;;;8296906;28;20050;-92
2022/05/12 06:41:57;;;;;;;7.22;3.58;;;;;;;;;;8296408;28;20104;-84
2022/05/12 06:45:59;;;;;;;8.70;3.80;;;;;;;;;;8297202;28;20069;-83
2022/05/12 06:50:04;;;;;;;12.93;3.33;;;;;;;;;;8296795;28;20493;-86
2022/05/12 06:54:09;;;;;;;10.98;3.53;;;;;;;;;;8297605;28;20161;-84
2022/05/12 06:58:17;;;;;;;8.13;3.35;;;;;;;;;;8296460;28;20053;-84
2022/05/12 07:02:19;;;;;;;6.05;3.20;;;;;;;;;;8282729;28;20046;-93
2022/05/12 07:06:23;;;;;;;10.98;3.20;;;;;;;;;;8274965;28;20108;-90
2022/05/12 07:10:29;;;;;;;5.72;2.83;;;;;;;;;;8276941;28;20042;-82
2022/05/12 07:14:31;;;;;;;7.72;3.42;;;;;;;;;;8302931;28;20053;-85
2022/05/12 07:18:35;;;;;;;9.95;3.10;;;;;;;;;;8282404;28;20046;-91
2022/05/12 07:26:59;;;;;;;8.52;2.80;;;;;;;;;;8289056;28;20050;-90
2022/05/12 07:31:01;;;;;;;9.82;2.80;;;;;;;;;;8284678;28;20056;-85
2022/05/12 07:35:06;;;;;;;10.70;3.20;;;;;;;;;;8295395;28;20050;-90
2022/05/12 07:39:11;;;;;;;31.27;3.67;;;;;;;;;;8296788;28;20108;-81
2022/05/12 07:43:14;;;;;;;17.30;3.55;;;;;;;;;;8286363;28;20053;-90
2022/05/12 07:47:16;;;;;;;13.32;3.92;;;;;;;;;;8272134;28;20046;-90
2022/05/12 07:51:20;;;;;;;9.35;2.90;;;;;;;;;;8274029;28;20066;-91
2022/05/12 07:55:24;;;;;;;8.65;2.80;;;;;;;;;;8272451;28;20054;-89
2022/05/12 07:59:29;;;;;;;7.63;2.70;;;;;;;;;;8271648;28;20050;-89
2022/05/12 08:03:32;;;;;;;9.43;3.33;;;;;;;;;;8287404;28;20119;-84
2022/05/12 08:07:35;;;;;;;11.63;2.55;;;;;;;;;;8298719;28;20050;-87
2022/05/12 08:11:40;;;;;;;25.25;4.13;;;;;;;;;;8278768;28;20121;-88
2022/05/12 08:15:43;;;;;;;12.88;2.95;;;;;;;;;;8298365;28;20141;-92
2022/05/12 08:19:45;;;;;;;12.38;3.22;;;;;;;;;;8277852;28;20050;-81
2022/05/12 08:23:48;;;;;;;16.85;2.83;;;;;;;;;;8304528;28;20136;-93
2022/05/12 08:27:52;;;;;;;8.73;3.63;;;;;;;;;;8314900;28;20398;-87
2022/05/12 08:31:55;;;;;;;14.07;3.05;;;;;;;;;;8310585;28;20133;-90
2022/05/12 08:35:57;;;;;;;12.98;3.20;;;;;;;;;;8316216;28;20053;-89
2022/05/12 08:40:00;;;;;;;7.55;3.00;;;;;;;;;;8318025;28;20058;-91
2022/05/12 08:44:08;;;;;;;11.57;3.00;;;;;;;;;;8319687;28;20064;-89
2022/05/12 08:48:14;;;;;;;9.63;2.80;;;;;;;;;;8310101;28;20042;-88
2022/05/12 08:52:23;;;;;;;14.52;3.08;;;;;;;;;;8291073;28;20050;-89
2022/05/12 08:56:27;;;;;;;12.07;2.58;;;;;;;;;;8287046;28;20053;-87
2022/05/12 09:00:35;;;;;;;10.02;2.53;;;;;;;;;;8288876;28;20046;-89
2022/05/12 09:05:07;;;;;;;7.95;2.80;;;;;;;;;;8302886;28;20053;-83
2022/05/12 09:09:20;;;;;;;14.02;2.75;;;;;;;;;;8273876;28;20054;-83
2022/05/12 09:13:28;;;;;;;10.77;2.35;;;;;;;;;;8276670;28;20137;-81
2022/05/12 09:17:38;;;;;;;10.95;2.72;;;;;;;;;;8268800;28;20058;-84
2022/05/12 09:21:41;;;;;;;9.60;2.63;;;;;;;;;;8263240;28;20049;-85
2022/05/12 09:25:46;;;;;;;13.27;3.05;;;;;;;;;;8264782;28;20059;-87
2022/05/12 09:29:51;;;;;;;18.38;3.25;;;;;;;;;;8272945;28;20112;-87
2022/05/12 09:33:55;;;;;;;9.88;2.83;;;;;;;;;;8293761;28;20072;-89
2022/05/12 09:37:59;;;;;;;15.75;3.60;;;;;;;;;;8266036;28;20573;-89
2022/05/12 09:42:06;;;;;;;20.42;3.63;;;;;;;;;;8262549;28;20062;-83
2022/05/12 09:46:20;;;;;;;16.90;2.92;;;;;;;;;;8262438;28;20062;-86
2022/05/12 09:50:28;;;;;;;16.30;3.20;;;;;;;;;;8262910;28;20494;-84
2022/05/12 09:54:34;;;;;;;16.23;3.38;;;;;;;;;;8270633;28;20042;-88
2022/05/12 09:58:39;;;;;;;19.48;3.40;;;;;;;;;;8269187;28;20205;-83
2022/05/12 10:11:48;;;;;;;18.25;3.20;;;;;;;;;;8269759;28;20522;-90
2022/05/12 10:15:52;;;;;;;24.10;4.57;;;;;;;;;;8263475;28;20446;-91
2022/05/12 10:19:56;;;;;;;15.52;5.07;;;;;;;;;;8265521;28;20048;-89
2022/05/12 10:24:08;;;;;;;17.17;5.45;;;;;;;;;;8265687;28;20042;-89
2022/05/12 10:28:20;;;;;;;21.13;5.25;;;;;;;;;;8267239;28;20138;-90
2022/05/12 10:32:36;;;;;;;15.75;4.53;;;;;;;;;;8267925;28;20054;-92
2022/05/12 10:36:50;;;;;;;12.55;5.05;;;;;;;;;;8284413;28;20061;-93
2022/05/12 10:40:58;;;;;;;23.88;5.53;;;;;;;;;;8306557;28;20108;-91
2022/05/12 10:45:14;;;;;;;16.88;5.07;;;;;;;;;;8304556;28;20061;-91
2022/05/12 10:49:23;;;;;;;23.63;6.20;;;;;;;;;;8307186;28;20042;-92
2022/05/12 10:53:36;;;;;;;17.40;4.68;;;;;;;;;;8305084;28;20052;-90
2022/05/12 10:57:55;;;;;;;15.57;4.15;;;;;;;;;;8297726;28;20097;-90
2022/05/12 11:02:04;;;;;;;29.27;5.18;;;;;;;;;;8281910;28;20168;-92
2022/05/12 11:06:11;;;;;;;14.63;4.72;;;;;;;;;;8301676;28;20050;-92
2022/05/12 11:10:24;;;;;;;10.15;4.20;;;;;;;;;;8273087;28;20046;-92
2022/05/12 11:14:33;;;;;;;11.82;3.90;;;;;;;;;;8272410;28;20590;-89
2022/05/12 11:18:43;;;;;;;10.88;3.92;;;;;;;;;;8300902;28;20053;-88
2022/05/12 11:22:50;;;;;;;11.52;3.88;;;;;;;;;;8301088;28;20056;-85
2022/05/12 11:27:22;;;;;;;15.73;4.05;;;;;;;;;;8280968;28;20046;-87
2022/05/12 11:31:33;;;;;;;26.13;4.60;;;;;;;;;;8297396;28;20461;-82
2022/05/12 11:35:43;;;;;;;16.85;4.72;;;;;;;;;;8297862;28;20061;-88
2022/05/12 11:39:55;;;;;;;16.33;4.25;;;;;;;;;;8297837;28;20050;-88
2022/05/12 11:44:26;;;;;;;13.38;3.50;;;;;;;;;;8296836;28;20061;-83
2022/05/12 11:48:42;;;;;;;23.77;3.47;;;;;;;;;;8288829;28;20057;-86
2022/05/12 11:53:00;;;;;;;14.85;3.60;;;;;;;;;;8273718;28;20049;-85
2022/05/12 11:57:05;;;;;;;16.60;3.60;;;;;;;;;;8295029;28;20136;-86
2022/05/12 12:01:11;;;;;;;7.82;3.88;;;;;;;;;;8294716;28;20107;-84
2022/05/12 12:05:55;;;;;;;20.50;4.70;;;;;;;;;;8273385;28;20849;-86
2022/05/12 12:10:12;;;;;;;9.73;2.80;;;;;;;;;;8284330;28;20050;-91
2022/05/12 12:14:57;;;;;;;12.90;3.70;;;;;;;;;;8280229;28;20078;-88
2022/05/12 12:19:08;;;;;;;14.85;3.58;;;;;;;;;;8287225;28;20415;-90
2022/05/12 12:23:27;;;;;;;9.57;3.20;;;;;;;;;;8263536;28;20050;-84
2022/05/12 12:28:02;;;;;;;17.48;3.85;;;;;;;;;;8279966;28;20075;-84
2022/05/12 12:32:25;;;;;;;19.38;3.53;;;;;;;;;;8287943;28;20054;-91
2022/05/12 12:37:05;;;;;;;11.48;2.75;;;;;;;;;;8274131;28;20057;-91
2022/05/12 12:41:10;;;;;;;17.50;3.45;;;;;;;;;;8268522;28;20125;-84
2022/05/12 12:45:19;;;;;;;10.73;2.50;;;;;;;;;;8226796;28;1469066;-88
2022/05/12 12:49:24;;;;;;;15.95;2.75;;;;;;;;;;8264322;28;20046;-88
2022/05/12 12:57:56;;;;;;;16.80;3.10;;;;;;;;;;8265085;28;20054;-89
2022/05/12 13:02:01;;;;;;;14.38;3.00;;;;;;;;;;8277015;28;20046;-83
2022/05/12 13:06:08;;;;;;;10.05;2.50;;;;;;;;;;8263817;28;20064;-84
2022/05/12 13:10:17;;;;;;;15.75;3.08;;;;;;;;;;8263867;28;20058;-83
2022/05/12 13:14:23;;;;;;;17.17;2.72;;;;;;;;;;8263011;28;20057;-82
2022/05/12 13:18:30;;;;;;;11.35;2.35;;;;;;;;;;8263201;28;20050;-92
2022/05/12 13:22:39;;;;;;;12.23;2.42;;;;;;;;;;8262987;28;20058;-86
2022/05/12 13:26:49;;;;;;;16.58;2.42;;;;;;;;;;8263452;28;20093;-82
2022/05/12 13:31:11;;;;;;;16.02;2.85;;;;;;;;;;8267095;28;20100;-82
2022/05/12 13:35:17;;;;;;;12.55;2.13;;;;;;;;;;8269760;28;20054;-81
2022/05/12 13:39:48;;;;;;;15.40;2.22;;;;;;;;;;8286152;28;20050;-82
2022/05/12 13:43:55;;;;;;;20.08;2.90;;;;;;;;;;8263908;28;20085;-82
2022/05/12 13:48:02;;;;;;;13.95;2.97;;;;;;;;;;8263401;28;20050;-86
2022/05/12 13:52:21;;;;;;;16.25;2.55;;;;;;;;;;8261967;28;20046;-83
2022/05/12 13:56:27;;;;;;;18.45;3.35;;;;;;;;;;8262925;28;20487;-80
2022/05/12 14:00:39;;;;;;;18.33;3.10;;;;;;;;;;8262006;28;20050;-82
2022/05/12 14:04:44;;;;;;;13.25;2.72;;;;;;;;;;8264738;28;20054;-81
2022/05/12 14:08:48;;;;;;;11.65;2.00;;;;;;;;;;8262756;28;20054;-83
2022/05/12 14:21:49;;;;;;;9.77;3.15;;;;;;;;;;8159448;29;20591;-80
2022/05/12 14:25:52;;;;;;;10.20;2.53;;;;;;;;;;8206978;28;20057;-80
2022/05/12 14:29:55;;;;;;;10.77;2.17;;;;;;;;;;8261497;28;20058;-81
2022/05/12 14:33:58;;;;;;;23.23;2.55;;;;;;;;;;8267525;28;20054;-80
2022/05/12 14:38:03;;;;;;;11.18;2.20;;;;;;;;;;8261262;28;20070;-80
2022/05/12 14:42:07;;;;;;;22.13;2.80;;;;;;;;;;8261435;28;20050;-82
2022/05/12 14:46:10;;;;;;;18.77;2.30;;;;;;;;;;8260784;28;20086;-83
2022/05/12 14:50:16;;;;;;;12.98;2.10;;;;;;;;;;8261141;28;20050;-80
2022/05/12 14:54:20;;;;;;;16.90;2.05;;;;;;;;;;8260900;28;20050;-84
2022/05/12 14:58:23;;;;;;;14.27;2.20;;;;;;;;;;8263744;28;20736;-81
2022/05/12 15:02:32;;;;;;;8.52;2.47;;;;;;;;;;8260754;28;20057;-85
2022/05/12 15:06:35;;;;;;;17.38;2.60;;;;;;;;;;8261220;28;20054;-83
2022/05/12 15:10:40;;;;;;;11.13;3.05;;;;;;;;;;8261366;28;20077;-81
2022/05/12 15:14:44;;;;;;;13.43;2.55;;;;;;;;;;8261519;28;20084;-84
2022/05/12 15:18:48;;;;;;;15.65;2.30;;;;;;;;;;8260690;28;20050;-80
2022/05/12 15:22:51;;;;;;;10.05;2.05;;;;;;;;;;8261903;28;20054;-80
2022/05/12 15:26:55;;;;;;;12.30;2.40;;;;;;;;;;8297749;28;20053;-87
2022/05/12 15:30:59;;;;;;;16.20;2.30;;;;;;;;;;8299517;28;20565;-87
2022/05/12 15:35:02;;;;;;;13.65;1.95;;;;;;;;;;8266902;28;20482;-87
2022/05/12 15:39:07;;;;;;;16.10;3.08;;;;;;;;;;8266764;28;20086;-80
2022/05/12 15:43:12;;;;;;;11.70;2.15;;;;;;;;;;8266157;28;20664;-79
2022/05/12 15:47:20;;;;;;;6.85;2.10;;;;;;;;;;8266515;28;20050;-81
2022/05/12 15:51:24;;;;;;;16.75;2.67;;;;;;;;;;8266347;28;20081;-83
2022/05/12 15:55:27;;;;;;;13.45;1.90;;;;;;;;;;8266115;28;20046;-87
2022/05/12 15:59:32;;;;;;;12.30;1.95;;;;;;;;;;8265469;28;20104;-80
2022/05/12 16:03:35;;;;;;;10.10;2.00;;;;;;;;;;8265862;28;20057;-85
2022/05/12 16:07:38;;;;;;;9.88;2.83;;;;;;;;;;8266009;28;20051;-79
2022/05/12 16:16:10;;;;;;;14.23;2.42;;;;;;;;;;8264797;28;20049;-79
2022/05/12 16:20:13;;;;;;;13.15;2.13;;;;;;;;;;8290280;28;20049;-80
2022/05/12 16:24:16;;;;;;;8.52;2.13;;;;;;;;;;8294851;28;20137;-82
2022/05/12 16:28:24;;;;;;;11.07;2.15;;;;;;;;;;8295655;28;20045;-84
2022/05/12 16:32:29;;;;;;;18.85;2.55;;;;;;;;;;8295428;28;20081;-80
2022/05/12 16:36:34;;;;;;;12.93;2.58;;;;;;;;;;8294582;28;20466;-81
2022/05/12 16:40:37;;;;;;;10.98;3.28;;;;;;;;;;8295044;28;20123;-82
2022/05/12 16:44:42;;;;;;;13.32;2.53;;;;;;;;;;8294677;28;20441;-80
2022/05/12 16:48:46;;;;;;;9.68;2.55;;;;;;;;;;8295156;28;20069;-87
2022/05/12 16:52:49;;;;;;;18.55;3.08;;;;;;;;;;8294652;28;20046;-82
2022/05/12 16:56:51;;;;;;;17.55;3.70;;;;;;;;;;8293477;28;20057;-80
2022/05/12 17:00:55;;;;;;;8.40;2.30;;;;;;;;;;8294193;28;20544;-79
2022/05/12 17:04:59;;;;;;;21.80;2.67;;;;;;;;;;8294688;28;20046;-80
2022/05/12 17:09:02;;;;;;;11.02;2.10;;;;;;;;;;8293593;28;20057;-80
2022/05/12 17:13:05;;;;;;;4.35;1.70;;;;;;;;;;8294866;28;20544;-81
2022/05/12 17:17:07;;;;;;;10.23;2.30;;;;;;;;;;8294076;28;20048;-81
2022/05/12 17:21:12;;;;;;;7.15;2.53;;;;;;;;;;8294511;28;20054;-88
2022/05/12 17:25:15;;;;;;;8.95;2.10;;;;;;;;;;8293521;28;20092;-84
2022/05/12 17:29:19;;;;;;;12.82;2.72;;;;;;;;;;8294204;28;20064;-83
2022/05/12 17:33:21;;;;;;;6.68;2.75;;;;;;;;;;8293224;28;20128;-83
2022/05/12 17:37:28;;;;;;;8.38;2.65;;;;;;;;;;8261481;28;20076;-84
2022/05/12 17:41:31;;;;;;;6.22;2.85;;;;;;;;;;8262763;28;20430;-83
2022/05/12 17:45:36;;;;;;;8.25;3.10;;;;;;;;;;8261784;28;20061;-83
2022/05/12 17:49:40;;;;;;;13.05;3.10;;;;;;;;;;8292961;28;20460;-84
2022/05/12 17:53:44;;;;;;;7.72;2.90;;;;;;;;;;8292464;28;20049;-84
2022/05/12 17:57:47;;;;;;;10.48;3.45;;;;;;;;;;8293138;28;20050;-83
2022/05/12 18:01:50;;;;;;;12.13;3.00;;;;;;;;;;8292985;28;20060;-82
2022/05/12 18:05:54;;;;;;;8.07;3.30;;;;;;;;;;8293101;28;20069;-84
2022/05/12 18:09:58;;;;;;;13.43;3.60;;;;;;;;;;8292694;28;20057;-82
2022/05/12 18:14:01;;;;;;;12.60;3.33;;;;;;;;;;8292439;28;20054;-83
2022/05/12 18:18:05;;;;;;;18.90;3.80;;;;;;;;;;8277389;28;20493;-83
2022/05/12 18:22:10;;;;;;;17.52;3.85;;;;;;;;;;8261231;28;20498;-82
2022/05/12 18:26:14;;;;;;;18.90;3.55;;;;;;;;;;8261450;28;20054;-83
2022/05/12 18:30:19;;;;;;;14.55;4.90;;;;;;;;;;8283895;28;20054;-84
2022/05/12 18:34:22;;;;;;;16.45;5.30;;;;;;;;;;8293453;28;20042;-84
2022/05/12 18:38:28;;;;;;;23.10;6.10;;;;;;;;;;8292578;28;20140;-84
2022/05/12 18:42:37;;;;;;;19.60;5.45;;;;;;;;;;8292635;28;20680;-85
2022/05/12 18:46:46;;;;;;;18.88;4.03;;;;;;;;;;8292413;28;20149;-84
2022/05/12 18:50:49;;;;;;;8.10;3.13;;;;;;;;;;8277382;28;20042;-84
2022/05/12 18:54:52;;;;;;;10.63;3.05;;;;;;;;;;8280980;28;20050;-84
2022/05/12 18:59:15;;;;;;;7.68;2.60;;;;;;;;;;8295023;28;20054;-84
2022/05/12 19:03:21;;;;;;;11.07;2.72;;;;;;;;;;8297940;28;20050;-85
2022/05/12 19:07:37;;;;;;;8.32;2.97;;;;;;;;;;8298151;28;20074;-83
2022/05/12 19:11:46;;;;;;;11.50;2.40;;;;;;;;;;8298513;28;20112;-83
2022/05/12 19:15:56;;;;;;;7.68;3.03;;;;;;;;;;8298052;28;20046;-84
2022/05/12 19:20:04;;;;;;;4.90;2.60;;;;;;;;;;8298145;28;20119;-84
2022/05/12 19:24:08;;;;;;;9.40;2.95;;;;;;;;;;8297717;28;20421;-83
2022/05/12 19:28:15;;;;;;;23.38;8.57;;;;;;;;;;8291619;28;20707;-83
2022/05/12 19:32:26;;;;;;;16.73;6.22;;;;;;;;;;8291673;28;20052;-82
2022/05/12 19:36:31;;;;;;;14.75;6.22;;;;;;;;;;8265849;28;20073;-83
2022/05/12 19:40:37;;;;;;;8.07;4.07;;;;;;;;;;8266406;28;20486;-84
2022/05/12 19:44:41;;;;;;;8.23;4.47;;;;;;;;;;8265856;28;20065;-84
2022/05/12 19:48:48;;;;;;;10.50;5.28;;;;;;;;;;8265956;28;20104;-83
2022/05/12 19:52:55;;;;;;;22.15;7.05;;;;;;;;;;8265628;28;20050;-84
2022/05/12 19:56:59;;;;;;;14.50;5.45;;;;;;;;;;8266094;28;20058;-83
2022/05/12 20:01:04;;;;;;;16.25;4.18;;;;;;;;;;8265163;28;20050;-83
2022/05/12 20:05:09;;;;;;;14.73;4.35;;;;;;;;;;8265469;28;20149;-83
2022/05/12 20:09:13;;;;;;;11.43;4.45;;;;;;;;;;8275519;28;20046;-83
2022/05/12 20:13:21;;;;;;;10.98;4.20;;;;;;;;;;8296130;28;20053;-84
2022/05/12 20:17:26;;;;;;;9.48;4.78;;;;;;;;;;8296544;28;20100;-83
2022/05/12 20:21:35;;;;;;;9.35;4.22;;;;;;;;;;8295877;28;20561;-85
2022/05/12 20:25:39;;;;;;;7.85;3.97;;;;;;;;;;8296030;28;20046;-85
2022/05/12 20:29:43;;;;;;;10.02;4.53;;;;;;;;;;8295814;28;20059;-84
2022/05/12 20:33:48;;;;;;;10.50;4.07;;;;;;;;;;8295443;28;20052;-84
2022/05/12 20:37:57;;;;;;;7.82;3.63;;;;;;;;;;8295551;28;20045;-86
2022/05/12 20:42:07;;;;;;;12.25;3.95;;;;;;;;;;8295214;28;20049;-84
2022/05/12 20:46:11;;;;;;;10.68;3.25;;;;;;;;;;8295180;28;20129;-85
2022/05/12 20:50:14;;;;;;;11.93;3.65;;;;;;;;;;8295491;28;20050;-84
2022/05/12 20:54:21;;;;;;;6.95;3.40;;;;;;;;;;8294747;28;20571;-85
2022/05/12 20:58:27;;;;;;;8.57;3.60;;;;;;;;;;8294932;28;20128;-85
2022/05/12 21:02:30;;;;;;;10.55;3.70;;;;;;;;;;8294833;28;20053;-83
2022/05/12 21:06:34;;;;;;;14.30;3.72;;;;;;;;;;8294947;28;20053;-83
2022/05/12 21:10:38;;;;;;;7.03;3.13;;;;;;;;;;8294346;28;20108;-85
2022/05/12 21:14:42;;;;;;;7.30;3.95;;;;;;;;;;8294417;28;20049;-83
2022/05/12 21:18:45;;;;;;;8.10;4.60;;;;;;;;;;8294072;28;20046;-84
2022/05/12 21:22:48;;;;;;;9.45;4.45;;;;;;;;;;8293286;28;20112;-85
2022/05/12 21:26:52;;;;;;;12.93;3.90;;;;;;;;;;8293972;28;20057;-85
2022/05/12 21:30:55;;;;;;;12.60;3.80;;;;;;;;;;8293821;28;20046;-84
2022/05/12 21:34:58;;;;;;;10.27;3.67;;;;;;;;;;8293653;28;20053;-83
2022/05/12 21:39:02;;;;;;;11.20;3.90;;;;;;;;;;8290481;28;20050;-83
2022/05/12 21:43:06;;;;;;;5.90;3.60;;;;;;;;;;8262700;28;20414;-84
2022/05/12 21:47:10;;;;;;;7.00;3.72;;;;;;;;;;8262733;28;20057;-86
2022/05/12 21:51:16;;;;;;;9.65;3.55;;;;;;;;;;8276391;28;20141;-83
2022/05/12 21:55:18;;;;;;;8.40;3.60;;;;;;;;;;8293520;28;20477;-82
2022/05/12 22:03:42;;;;;;;8.70;3.53;;;;;;;;;;8292044;28;20050;-84
2022/05/12 22:07:45;;;;;;;9.45;4.00;;;;;;;;;;8262355;28;20051;-86
2022/05/12 22:16:10;;;;;;;7.88;3.47;;;;;;;;;;8266045;28;20046;-84
2022/05/12 22:20:13;;;;;;;7.47;4.05;;;;;;;;;;8278557;28;20126;-83
2022/05/12 22:24:16;;;;;;;7.53;3.63;;;;;;;;;;8262455;28;20534;-82
2022/05/12 22:28:19;;;;;;;6.07;3.38;;;;;;;;;;8261907;28;20054;-82
2022/05/12 22:32:23;;;;;;;7.63;3.53;;;;;;;;;;8261903;28;20050;-83
2022/05/12 22:36:26;;;;;;;6.20;3.58;;;;;;;;;;8268728;28;20068;-83
2022/05/12 22:40:30;;;;;;;5.93;3.67;;;;;;;;;;8268819;28;20060;-82
2022/05/12 22:44:33;;;;;;;10.70;3.65;;;;;;;;;;8267943;28;20593;-83
2022/05/12 22:48:38;;;;;;;10.50;3.97;;;;;;;;;;8268213;28;20101;-82
2022/05/12 22:52:42;;;;;;;9.02;4.68;;;;;;;;;;8268108;28;20137;-83
2022/05/12 22:56:45;;;;;;;7.32;3.42;;;;;;;;;;8268250;28;20050;-82
2022/05/12 23:00:48;;;;;;;9.77;4.28;;;;;;;;;;8267982;28;20425;-84
2022/05/12 23:04:52;;;;;;;7.55;3.95;;;;;;;;;;8267480;28;20179;-84
2022/05/12 23:08:56;;;;;;;9.50;4.13;;;;;;;;;;8267272;28;20051;-85
2022/05/12 23:12:58;;;;;;;10.52;4.22;;;;;;;;;;8267400;28;20054;-84
2022/05/12 23:17:01;;;;;;;7.88;3.70;;;;;;;;;;8267754;28;20054;-84
2022/05/12 23:25:25;;;;;;;7.57;4.20;;;;;;;;;;8292940;28;20054;-84
2022/05/12 23:29:27;;;;;;;10.35;4.38;;;;;;;;;;8297964;28;20054;-83
2022/05/12 23:33:30;;;;;;;7.38;4.10;;;;;;;;;;8298187;28;20054;-83
2022/05/12 23:37:34;;;;;;;7.95;4.38;;;;;;;;;;8266745;28;20057;-83
2022/05/12 23:41:37;;;;;;;12.57;4.15;;;;;;;;;;8266867;28;20544;-83
2022/05/12 23:45:40;;;;;;;10.52;4.38;;;;;;;;;;8265786;28;20092;-82
2022/05/12 23:49:42;;;;;;;11.00;4.85;;;;;;;;;;8266814;28;20054;-83
2022/05/12 23:53:46;;;;;;;8.38;4.28;;;;;;;;;;8266517;28;20077;-82
2022/05/12 23:57:49;;;;;;;8.23;4.20;;;;;;;;;;8266496;28;20500;-82
